Flight Track Log - Related Links

Times and Time Zones

All times are in EDT time to prevent confusion due to time zone crossing. See the TAM3854 flight status page for this flight to view local times or setup timezone preferences in your user account.

Time Position Orientation Groundspeed Altitude Reporting Facility
EDT Latitude Longitude Course Direction KTS MPH feet Rate Location/Type
Tue 10:53:00 PM -18.7597 -44.9058 314° West  Level Estimated
Tue 10:54:00 PM -18.7110 -44.9575 315° West  Level Estimated
Tue 10:55:00 PM -18.6623 -45.0092 315° West  Level Estimated
Tue 10:56:00 PM -18.6135 -45.0609 315° West  Level Estimated
Tue 10:57:00 PM -18.5648 -45.1126 315° West  Level Estimated
Tue 10:58:00 PM -18.5160 -45.1642 315° West  Level Estimated
Tue 10:59:00 PM -18.4673 -45.2159 315° West  Level Estimated
Tue 11:00:00 PM -18.4185 -45.2674 315° West  Level Estimated
Tue 11:01:00 PM -18.3697 -45.3190 315° West  Level Estimated
Tue 11:02:00 PM -18.3209 -45.3705 315° West  Level Estimated
Tue 11:03:00 PM -18.2720 -45.4220 315° West  Level Estimated
Tue 11:04:00 PM -18.2232 -45.4735 315° West  Level Estimated
Tue 11:05:00 PM -18.1744 -45.5249 315° West  Level Estimated
Tue 11:06:00 PM -18.1255 -45.5763 315° West  Level Estimated
Tue 11:07:00 PM -18.0766 -45.6277 315° West  Level Estimated
Tue 11:08:00 PM -18.0277 -45.6791 315° West  Level Estimated
Tue 11:09:00 PM -17.9788 -45.7304 315° West  Level Estimated
Tue 11:10:00 PM -17.9299 -45.7817 315° West  Level Estimated
Tue 11:11:00 PM -17.8810 -45.8329 315° West  Level Estimated
Tue 11:12:00 PM -17.8320 -45.8842 315° West  Level Estimated
Tue 11:13:00 PM -17.7830 -45.9354 315° West  Level Estimated
Tue 11:14:00 PM -17.7341 -45.9866 315° West  Level Estimated
Tue 11:15:00 PM -17.6851 -46.0377 315° West  Level Estimated
Tue 11:16:00 PM -17.6361 -46.0888 315° West  Level Estimated
Tue 11:17:00 PM -17.5871 -46.1399 315° West  Level Estimated
Tue 11:18:00 PM -17.5380 -46.1910 315° West  Level Estimated
Tue 11:19:00 PM -17.4890 -46.2421 315° West  Level Estimated
Tue 11:20:00 PM -17.4400 -46.2931 315° West  Level Estimated
Tue 11:21:00 PM -17.3909 -46.3441 315° West  Level Estimated
Tue 11:22:00 PM -17.3418 -46.3950 315° West  Level Estimated
Tue 11:23:00 PM -17.2927 -46.4460 315° West  Level Estimated
Tue 11:24:00 PM -17.2436 -46.4969 315° West  Level Estimated
Tue 11:25:00 PM -17.1945 -46.5477 315° West  Level Estimated
Tue 11:26:00 PM -17.1454 -46.5986 315° West  Level Estimated
Tue 11:27:00 PM -17.0962 -46.6494 315° West  Level Estimated
Tue 11:28:00 PM -17.0471 -46.7002 315° West  Level Estimated
Tue 11:29:00 PM -16.9979 -46.7510 315° West  Level Estimated
Tue 11:30:00 PM -16.9487 -46.8018 315° West  Level Estimated
Tue 11:31:00 PM -16.8995 -46.8525 315° West  Level Estimated
Tue 11:32:00 PM -16.8503 -46.9032 315° West  Level Estimated
Tue 11:33:00 PM -16.8011 -46.9538 315° West  Level Estimated
Tue 11:34:00 PM -16.7519 -47.0045 315° West  Level Estimated
Tue 11:35:00 PM -16.7026 -47.0551 315° West  Level Estimated
Tue 11:36:00 PM -16.6534 -47.1057 315° West  Level Estimated
Tue 11:37:00 PM -16.6041 -47.1562 315° West  Level Estimated
Tue 11:38:00 PM -16.5548 -47.2068 315° West  Level Estimated
Tue 11:39:00 PM -16.5055 -47.2573 316° Northwest  Level Estimated
Tue 11:40:00 PM -16.4562 -47.3078 316° Northwest  Level Estimated
Tue 11:41:00 PM -16.4069 -47.3582 316° Northwest  Level Estimated
Tue 11:42:00 PM -16.3576 -47.4086 316° Northwest  Level Estimated
Tue 11:43:00 PM -16.3082 -47.4591 316° Northwest  Level Estimated
Tue 11:44:00 PM -16.2589 -47.5094 316° Northwest  Level Estimated
Tue 11:45:00 PM -16.2095 -47.5598 316° Northwest  Level Estimated
Tue 11:46:00 PM -16.1602 -47.6101 316° Northwest  Level Estimated
Tue 11:47:00 PM -16.1108 -47.6604 316° Northwest  Level Estimated
Tue 11:48:00 PM -16.0614 -47.7107 316° Northwest  Level Estimated
Tue 11:49:00 PM -16.0119 -47.7610 316° Northwest  Level Estimated
Tue 11:50:00 PM -15.9625 -47.8112 316° Northwest  Level Estimated
Tue 11:51:00 PM -15.9131 -47.8614 316° Northwest  Level Estimated
Tue 11:52:00 PM -15.8636 -47.9116 316° Northwest  Level Estimated
Tue 11:53:00 PM -15.8626 -47.9127 316° Northwest  Level Estimated
Tue 11:54:00 PM -15.8626 -47.9127 128° Southeast  Level Estimated
Tue 11:55:00 PM -15.8626 -47.9127 128° Southeast  Level Estimated
Tue 11:56:00 PM -15.8626 -47.9127 128° Southeast  Level Estimated
Tue 11:57:00 PM -15.8626 -47.9127 128° Southeast  Level Estimated
Tue 11:58:00 PM -15.8626 -47.9127 128° Southeast  Level Estimated
Tue 11:59:00 PM -15.8626 -47.9127 128° Southeast  Level Estimated
Wed 12:00:00 AM -15.8626 -47.9127 128° Southeast  Level Estimated
Wed 12:01:00 AM -15.8626 -47.9127 128° Southeast  Level Estimated
Wed 12:02:00 AM -15.8626 -47.9127 128° Southeast  Level Estimated
Wed 12:03:00 AM -15.8626 -47.9127 128° Southeast  Level Estimated
Wed 12:04:00 AM -15.8626 -47.9127 128° Southeast  Level Estimated
Wed 12:05:00 AM -15.8626 -47.9127 128° Southeast  Level Estimated
Wed 12:06:00 AM -15.8626 -47.9127 128° Southeast  Level Estimated
Wed 12:07:00 AM -15.8626 -47.9127 128° Southeast  Level Estimated
Wed 12:08:00 AM -15.8626 -47.9127 128° Southeast  Level Estimated

Login

Don't have an account? Register now (free) for customized features, flight alerts, and more!